sensor_id;sensor_type;location;lat;lon;timestamp;P1;durP1;ratioP1;P2;durP2;ratioP2
79687;SDS011;69155;49.464;2.108;2023-08-12T00:00:30;10.37;;;3.40;;
79687;SDS011;69155;49.464;2.108;2023-08-12T00:02:56;5.97;;;3.37;;
79687;SDS011;69155;49.464;2.108;2023-08-12T00:05:21;8.20;;;3.20;;
79687;SDS011;69155;49.464;2.108;2023-08-12T00:07:46;4.70;;;3.13;;
79687;SDS011;69155;49.464;2.108;2023-08-12T00:10:12;4.97;;;2.88;;
79687;SDS011;69155;49.464;2.108;2023-08-12T00:12:38;8.45;;;3.20;;
79687;SDS011;69155;49.464;2.108;2023-08-12T00:15:03;5.05;;;3.72;;
79687;SDS011;69155;49.464;2.108;2023-08-12T00:17:31;3.58;;;2.53;;
79687;SDS011;69155;49.464;2.108;2023-08-12T00:19:56;4.13;;;2.67;;
79687;SDS011;69155;49.464;2.108;2023-08-12T00:22:21;6.73;;;3.10;;
79687;SDS011;69155;49.464;2.108;2023-08-12T00:24:47;5.60;;;3.35;;
79687;SDS011;69155;49.464;2.108;2023-08-12T00:27:12;6.23;;;3.50;;
79687;SDS011;69155;49.464;2.108;2023-08-12T00:29:37;6.60;;;3.10;;
79687;SDS011;69155;49.464;2.108;2023-08-12T00:32:02;5.23;;;3.33;;
79687;SDS011;69155;49.464;2.108;2023-08-12T00:34:28;6.13;;;3.72;;
79687;SDS011;69155;49.464;2.108;2023-08-12T00:36:53;9.20;;;3.13;;
79687;SDS011;69155;49.464;2.108;2023-08-12T00:39:18;4.30;;;3.07;;
79687;SDS011;69155;49.464;2.108;2023-08-12T00:41:43;8.00;;;3.57;;
79687;SDS011;69155;49.464;2.108;2023-08-12T00:44:09;5.15;;;2.92;;
79687;SDS011;69155;49.464;2.108;2023-08-12T00:46:34;6.47;;;3.07;;
79687;SDS011;69155;49.464;2.108;2023-08-12T00:49:00;5.78;;;3.40;;
79687;SDS011;69155;49.464;2.108;2023-08-12T00:51:25;6.90;;;2.90;;
79687;SDS011;69155;49.464;2.108;2023-08-12T00:53:50;4.93;;;2.63;;
79687;SDS011;69155;49.464;2.108;2023-08-12T00:56:15;3.63;;;2.70;;
79687;SDS011;69155;49.464;2.108;2023-08-12T00:58:41;5.85;;;2.80;;
79687;SDS011;69155;49.464;2.108;2023-08-12T01:01:06;4.40;;;2.90;;
79687;SDS011;69155;49.464;2.108;2023-08-12T01:03:34;3.15;;;2.40;;
79687;SDS011;69155;49.464;2.108;2023-08-12T01:05:59;4.47;;;2.70;;
79687;SDS011;69155;49.464;2.108;2023-08-12T01:08:26;2.70;;;1.98;;
79687;SDS011;69155;49.464;2.108;2023-08-12T01:10:52;3.50;;;1.95;;
79687;SDS011;69155;49.464;2.108;2023-08-12T01:13:29;3.58;;;2.08;;
79687;SDS011;69155;49.464;2.108;2023-08-12T01:15:57;3.13;;;2.20;;
79687;SDS011;69155;49.464;2.108;2023-08-12T01:18:23;3.72;;;1.90;;
79687;SDS011;69155;49.464;2.108;2023-08-12T01:20:49;3.10;;;1.92;;
79687;SDS011;69155;49.464;2.108;2023-08-12T01:23:14;3.00;;;2.03;;
79687;SDS011;69155;49.464;2.108;2023-08-12T01:25:40;2.05;;;1.85;;
79687;SDS011;69155;49.464;2.108;2023-08-12T01:28:05;3.58;;;1.98;;
79687;SDS011;69155;49.464;2.108;2023-08-12T01:30:32;2.03;;;1.67;;
79687;SDS011;69155;49.464;2.108;2023-08-12T01:33:00;4.68;;;1.92;;
79687;SDS011;69155;49.464;2.108;2023-08-12T01:35:33;3.97;;;1.92;;
79687;SDS011;69155;49.464;2.108;2023-08-12T01:38:00;5.25;;;1.90;;
79687;SDS011;69155;49.464;2.108;2023-08-12T01:40:27;2.70;;;2.03;;
79687;SDS011;69155;49.464;2.108;2023-08-12T01:42:53;3.22;;;1.83;;
79687;SDS011;69155;49.464;2.108;2023-08-12T01:45:19;5.60;;;2.20;;
79687;SDS011;69155;49.464;2.108;2023-08-12T01:47:44;2.43;;;1.60;;
79687;SDS011;69155;49.464;2.108;2023-08-12T01:50:09;2.33;;;1.60;;
79687;SDS011;69155;49.464;2.108;2023-08-12T01:52:35;3.38;;;1.50;;
79687;SDS011;69155;49.464;2.108;2023-08-12T01:55:00;2.43;;;1.77;;
79687;SDS011;69155;49.464;2.108;2023-08-12T01:57:25;2.97;;;1.70;;
79687;SDS011;69155;49.464;2.108;2023-08-12T01:59:51;1.30;;;1.20;;
79687;SDS011;69155;49.464;2.108;2023-08-12T02:02:16;3.22;;;1.30;;
79687;SDS011;69155;49.464;2.108;2023-08-12T02:04:41;2.30;;;1.40;;
79687;SDS011;69155;49.464;2.108;2023-08-12T02:07:08;2.15;;;1.45;;
79687;SDS011;69155;49.464;2.108;2023-08-12T02:09:33;1.77;;;1.07;;
79687;SDS011;69155;49.464;2.108;2023-08-12T02:11:58;2.40;;;1.07;;
79687;SDS011;69155;49.464;2.108;2023-08-12T02:14:23;1.20;;;1.10;;
79687;SDS011;69155;49.464;2.108;2023-08-12T02:16:51;1.20;;;1.10;;
79687;SDS011;69155;49.464;2.108;2023-08-12T02:19:16;1.45;;;1.35;;
79687;SDS011;69155;49.464;2.108;2023-08-12T02:21:47;6.72;;;1.70;;
79687;SDS011;69155;49.464;2.108;2023-08-12T02:24:12;1.30;;;1.20;;
79687;SDS011;69155;49.464;2.108;2023-08-12T02:26:37;1.30;;;1.20;;
79687;SDS011;69155;49.464;2.108;2023-08-12T02:29:03;1.00;;;1.00;;
79687;SDS011;69155;49.464;2.108;2023-08-12T02:31:28;1.10;;;1.10;;
79687;SDS011;69155;49.464;2.108;2023-08-12T02:33:53;1.20;;;1.10;;
79687;SDS011;69155;49.464;2.108;2023-08-12T02:36:18;1.30;;;1.20;;
79687;SDS011;69155;49.464;2.108;2023-08-12T02:38:44;1.70;;;1.30;;
79687;SDS011;69155;49.464;2.108;2023-08-12T02:41:09;1.23;;;1.00;;
79687;SDS011;69155;49.464;2.108;2023-08-12T02:43:34;2.50;;;1.20;;
79687;SDS011;69155;49.464;2.108;2023-08-12T02:46:02;0.98;;;0.98;;
79687;SDS011;69155;49.464;2.108;2023-08-12T02:48:28;1.13;;;0.93;;
79687;SDS011;69155;49.464;2.108;2023-08-12T02:50:53;1.33;;;1.20;;
79687;SDS011;69155;49.464;2.108;2023-08-12T02:53:18;2.03;;;1.10;;
79687;SDS011;69155;49.464;2.108;2023-08-12T02:55:46;1.27;;;1.17;;
79687;SDS011;69155;49.464;2.108;2023-08-12T02:58:11;0.98;;;0.98;;
79687;SDS011;69155;49.464;2.108;2023-08-12T03:00:37;1.00;;;1.00;;
79687;SDS011;69155;49.464;2.108;2023-08-12T03:03:02;2.90;;;0.90;;
79687;SDS011;69155;49.464;2.108;2023-08-12T03:05:27;1.88;;;1.10;;
79687;SDS011;69155;49.464;2.108;2023-08-12T03:07:52;1.50;;;1.07;;
79687;SDS011;69155;49.464;2.108;2023-08-12T03:10:18;1.90;;;1.20;;
79687;SDS011;69155;49.464;2.108;2023-08-12T03:12:43;1.20;;;1.10;;
79687;SDS011;69155;49.464;2.108;2023-08-12T03:15:09;2.87;;;1.00;;
79687;SDS011;69155;49.464;2.108;2023-08-12T03:17:35;1.10;;;1.10;;
79687;SDS011;69155;49.464;2.108;2023-08-12T03:20:00;0.80;;;0.80;;
79687;SDS011;69155;49.464;2.108;2023-08-12T03:22:27;1.20;;;1.10;;
79687;SDS011;69155;49.464;2.108;2023-08-12T03:24:52;2.25;;;0.77;;
79687;SDS011;69155;49.464;2.108;2023-08-12T03:27:18;4.18;;;1.08;;
79687;SDS011;69155;49.464;2.108;2023-08-12T03:29:46;1.77;;;1.00;;
79687;SDS011;69155;49.464;2.108;2023-08-12T03:32:11;1.35;;;1.00;;
79687;SDS011;69155;49.464;2.108;2023-08-12T03:34:36;1.20;;;0.90;;
79687;SDS011;69155;49.464;2.108;2023-08-12T03:37:02;0.93;;;0.93;;
79687;SDS011;69155;49.464;2.108;2023-08-12T03:39:27;3.07;;;1.10;;
79687;SDS011;69155;49.464;2.108;2023-08-12T03:41:52;1.03;;;0.90;;
79687;SDS011;69155;49.464;2.108;2023-08-12T03:44:18;1.20;;;1.10;;
79687;SDS011;69155;49.464;2.108;2023-08-12T03:46:43;1.00;;;1.00;;
79687;SDS011;69155;49.464;2.108;2023-08-12T03:49:08;1.83;;;0.77;;
79687;SDS011;69155;49.464;2.108;2023-08-12T03:51:34;3.10;;;0.90;;
79687;SDS011;69155;49.464;2.108;2023-08-12T03:53:59;1.83;;;0.73;;
79687;SDS011;69155;49.464;2.108;2023-08-12T03:56:24;1.00;;;1.00;;
79687;SDS011;69155;49.464;2.108;2023-08-12T03:58:49;0.60;;;0.60;;
79687;SDS011;69155;49.464;2.108;2023-08-12T04:01:14;2.77;;;0.77;;
79687;SDS011;69155;49.464;2.108;2023-08-12T04:03:40;1.17;;;0.30;;
79687;SDS011;69155;49.464;2.108;2023-08-12T04:06:05;0.67;;;0.27;;
79687;SDS011;69155;49.464;2.108;2023-08-12T04:08:30;0.27;;;0.27;;
79687;SDS011;69155;49.464;2.108;2023-08-12T04:10:57;0.10;;;0.10;;
79687;SDS011;69155;49.464;2.108;2023-08-12T04:13:22;0.30;;;0.30;;
79687;SDS011;69155;49.464;2.108;2023-08-12T04:15:48;0.40;;;0.33;;
79687;SDS011;69155;49.464;2.108;2023-08-12T04:18:14;0.13;;;0.13;;
79687;SDS011;69155;49.464;2.108;2023-08-12T04:20:39;2.23;;;0.40;;
79687;SDS011;69155;49.464;2.108;2023-08-12T04:23:07;0.35;;;0.35;;
79687;SDS011;69155;49.464;2.108;2023-08-12T04:25:35;0.55;;;0.30;;
79687;SDS011;69155;49.464;2.108;2023-08-12T04:28:00;4.85;;;0.50;;
79687;SDS011;69155;49.464;2.108;2023-08-12T04:30:25;0.47;;;0.20;;
79687;SDS011;69155;49.464;2.108;2023-08-12T04:32:51;0.28;;;0.28;;
79687;SDS011;69155;49.464;2.108;2023-08-12T04:35:16;0.40;;;0.20;;
79687;SDS011;69155;49.464;2.108;2023-08-12T04:37:41;1.60;;;0.20;;
79687;SDS011;69155;49.464;2.108;2023-08-12T04:40:07;0.40;;;0.30;;
79687;SDS011;69155;49.464;2.108;2023-08-12T04:42:33;0.10;;;0.10;;
79687;SDS011;69155;49.464;2.108;2023-08-12T04:45:01;1.08;;;0.57;;
79687;SDS011;69155;49.464;2.108;2023-08-12T04:47:29;0.23;;;0.23;;
79687;SDS011;69155;49.464;2.108;2023-08-12T04:49:54;0.50;;;0.50;;
79687;SDS011;69155;49.464;2.108;2023-08-12T04:52:19;1.97;;;0.77;;
79687;SDS011;69155;49.464;2.108;2023-08-12T04:54:45;5.32;;;0.57;;
79687;SDS011;69155;49.464;2.108;2023-08-12T04:57:10;1.00;;;0.40;;
79687;SDS011;69155;49.464;2.108;2023-08-12T04:59:36;2.90;;;0.50;;
79687;SDS011;69155;49.464;2.108;2023-08-12T05:02:01;1.50;;;0.38;;
79687;SDS011;69155;49.464;2.108;2023-08-12T05:04:27;1.93;;;0.20;;
79687;SDS011;69155;49.464;2.108;2023-08-12T05:06:52;0.23;;;0.23;;
79687;SDS011;69155;49.464;2.108;2023-08-12T05:09:17;0.13;;;0.13;;
79687;SDS011;69155;49.464;2.108;2023-08-12T05:11:43;1.50;;;0.17;;
79687;SDS011;69155;49.464;2.108;2023-08-12T05:14:08;0.50;;;0.27;;
79687;SDS011;69155;49.464;2.108;2023-08-12T05:16:34;0.57;;;0.28;;
79687;SDS011;69155;49.464;2.108;2023-08-12T05:18:59;2.57;;;0.40;;
79687;SDS011;69155;49.464;2.108;2023-08-12T05:21:24;1.73;;;0.53;;
79687;SDS011;69155;49.464;2.108;2023-08-12T05:23:49;0.10;;;0.10;;
79687;SDS011;69155;49.464;2.108;2023-08-12T05:26:15;0.30;;;0.30;;
79687;SDS011;69155;49.464;2.108;2023-08-12T05:28:40;0.40;;;0.33;;
79687;SDS011;69155;49.464;2.108;2023-08-12T05:31:05;1.10;;;0.57;;
79687;SDS011;69155;49.464;2.108;2023-08-12T05:33:30;0.40;;;0.40;;
79687;SDS011;69155;49.464;2.108;2023-08-12T05:35:55;1.43;;;0.23;;
79687;SDS011;69155;49.464;2.108;2023-08-12T05:38:21;0.87;;;0.50;;
79687;SDS011;69155;49.464;2.108;2023-08-12T05:40:46;2.03;;;0.60;;
79687;SDS011;69155;49.464;2.108;2023-08-12T05:43:12;0.50;;;0.50;;
79687;SDS011;69155;49.464;2.108;2023-08-12T05:45:37;2.83;;;0.50;;
79687;SDS011;69155;49.464;2.108;2023-08-12T05:48:02;0.63;;;0.57;;
79687;SDS011;69155;49.464;2.108;2023-08-12T05:50:27;0.50;;;0.50;;
79687;SDS011;69155;49.464;2.108;2023-08-12T05:52:53;0.40;;;0.40;;
79687;SDS011;69155;49.464;2.108;2023-08-12T05:55:18;2.33;;;1.00;;
79687;SDS011;69155;49.464;2.108;2023-08-12T05:57:46;0.63;;;0.63;;
79687;SDS011;69155;49.464;2.108;2023-08-12T06:00:14;0.40;;;0.40;;
79687;SDS011;69155;49.464;2.108;2023-08-12T06:02:40;0.80;;;0.80;;
79687;SDS011;69155;49.464;2.108;2023-08-12T06:05:05;0.53;;;0.53;;
79687;SDS011;69155;49.464;2.108;2023-08-12T06:07:30;1.40;;;0.85;;
79687;SDS011;69155;49.464;2.108;2023-08-12T06:09:55;4.53;;;1.77;;
79687;SDS011;69155;49.464;2.108;2023-08-12T06:12:21;1.33;;;1.03;;
79687;SDS011;69155;49.464;2.108;2023-08-12T06:14:46;2.07;;;1.10;;
79687;SDS011;69155;49.464;2.108;2023-08-12T06:17:11;2.03;;;1.20;;
79687;SDS011;69155;49.464;2.108;2023-08-12T06:19:36;1.93;;;1.03;;
79687;SDS011;69155;49.464;2.108;2023-08-12T06:22:01;3.90;;;1.07;;
79687;SDS011;69155;49.464;2.108;2023-08-12T06:24:28;6.95;;;2.22;;
79687;SDS011;69155;49.464;2.108;2023-08-12T06:26:53;5.57;;;1.77;;
79687;SDS011;69155;49.464;2.108;2023-08-12T06:29:18;6.97;;;1.90;;
79687;SDS011;69155;49.464;2.108;2023-08-12T06:31:43;6.53;;;1.67;;
79687;SDS011;69155;49.464;2.108;2023-08-12T06:34:09;1.27;;;1.17;;
79687;SDS011;69155;49.464;2.108;2023-08-12T06:36:34;5.18;;;1.55;;
79687;SDS011;69155;49.464;2.108;2023-08-12T06:38:59;2.80;;;1.60;;
79687;SDS011;69155;49.464;2.108;2023-08-12T06:41:25;4.77;;;1.67;;
79687;SDS011;69155;49.464;2.108;2023-08-12T06:43:50;4.00;;;1.50;;
79687;SDS011;69155;49.464;2.108;2023-08-12T06:46:15;4.45;;;1.33;;
79687;SDS011;69155;49.464;2.108;2023-08-12T06:48:43;4.47;;;1.27;;
79687;SDS011;69155;49.464;2.108;2023-08-12T06:51:11;2.97;;;1.50;;
79687;SDS011;69155;49.464;2.108;2023-08-12T06:53:37;3.47;;;1.47;;
79687;SDS011;69155;49.464;2.108;2023-08-12T06:56:03;4.90;;;1.35;;
79687;SDS011;69155;49.464;2.108;2023-08-12T06:58:31;4.82;;;1.30;;
79687;SDS011;69155;49.464;2.108;2023-08-12T07:00:56;4.10;;;1.90;;
79687;SDS011;69155;49.464;2.108;2023-08-12T07:03:24;2.85;;;1.52;;
79687;SDS011;69155;49.464;2.108;2023-08-12T07:05:49;4.18;;;1.65;;
79687;SDS011;69155;49.464;2.108;2023-08-12T07:08:14;9.37;;;1.63;;
79687;SDS011;69155;49.464;2.108;2023-08-12T07:10:40;5.73;;;1.80;;
79687;SDS011;69155;49.464;2.108;2023-08-12T07:13:06;5.15;;;1.52;;
79687;SDS011;69155;49.464;2.108;2023-08-12T07:15:31;6.77;;;1.30;;
79687;SDS011;69155;49.464;2.108;2023-08-12T07:17:56;4.30;;;1.57;;
79687;SDS011;69155;49.464;2.108;2023-08-12T07:20:22;3.25;;;1.40;;
79687;SDS011;69155;49.464;2.108;2023-08-12T07:22:47;5.30;;;1.50;;
79687;SDS011;69155;49.464;2.108;2023-08-12T07:25:15;5.50;;;1.33;;
79687;SDS011;69155;49.464;2.108;2023-08-12T07:27:43;6.03;;;1.60;;
79687;SDS011;69155;49.464;2.108;2023-08-12T07:30:09;8.90;;;1.88;;
79687;SDS011;69155;49.464;2.108;2023-08-12T07:32:36;8.40;;;1.80;;
79687;SDS011;69155;49.464;2.108;2023-08-12T07:35:01;4.05;;;1.50;;
79687;SDS011;69155;49.464;2.108;2023-08-12T07:37:26;5.70;;;1.57;;
79687;SDS011;69155;49.464;2.108;2023-08-12T07:39:51;11.57;;;2.33;;
79687;SDS011;69155;49.464;2.108;2023-08-12T07:42:19;5.00;;;1.83;;
79687;SDS011;69155;49.464;2.108;2023-08-12T07:44:44;6.25;;;1.70;;
79687;SDS011;69155;49.464;2.108;2023-08-12T07:47:09;6.63;;;1.30;;
79687;SDS011;69155;49.464;2.108;2023-08-12T07:49:35;4.07;;;1.47;;
79687;SDS011;69155;49.464;2.108;2023-08-12T07:52:00;6.17;;;1.90;;
79687;SDS011;69155;49.464;2.108;2023-08-12T07:54:25;9.35;;;1.63;;
79687;SDS011;69155;49.464;2.108;2023-08-12T07:56:51;5.90;;;2.30;;
79687;SDS011;69155;49.464;2.108;2023-08-12T07:59:18;5.35;;;1.90;;
79687;SDS011;69155;49.464;2.108;2023-08-12T08:01:43;9.77;;;2.23;;
79687;SDS011;69155;49.464;2.108;2023-08-12T08:04:08;4.53;;;1.60;;
79687;SDS011;69155;49.464;2.108;2023-08-12T08:06:34;10.97;;;2.47;;
79687;SDS011;69155;49.464;2.108;2023-08-12T08:08:59;4.37;;;1.70;;
79687;SDS011;69155;49.464;2.108;2023-08-12T08:11:30;7.13;;;2.00;;
79687;SDS011;69155;49.464;2.108;2023-08-12T08:13:57;8.93;;;2.67;;
79687;SDS011;69155;49.464;2.108;2023-08-12T08:16:22;6.85;;;2.15;;
79687;SDS011;69155;49.464;2.108;2023-08-12T08:18:47;5.37;;;2.00;;
79687;SDS011;69155;49.464;2.108;2023-08-12T08:21:12;5.00;;;1.70;;
79687;SDS011;69155;49.464;2.108;2023-08-12T08:23:39;10.87;;;2.00;;
79687;SDS011;69155;49.464;2.108;2023-08-12T08:26:04;7.95;;;1.83;;
79687;SDS011;69155;49.464;2.108;2023-08-12T08:28:30;6.37;;;2.00;;
79687;SDS011;69155;49.464;2.108;2023-08-12T08:30:55;8.13;;;2.03;;
79687;SDS011;69155;49.464;2.108;2023-08-12T08:33:20;8.67;;;2.00;;
79687;SDS011;69155;49.464;2.108;2023-08-12T08:35:45;7.90;;;2.10;;
79687;SDS011;69155;49.464;2.108;2023-08-12T08:38:10;12.90;;;2.90;;
79687;SDS011;69155;49.464;2.108;2023-08-12T08:40:36;13.37;;;3.10;;
79687;SDS011;69155;49.464;2.108;2023-08-12T08:43:02;6.13;;;3.30;;
79687;SDS011;69155;49.464;2.108;2023-08-12T08:45:29;10.60;;;3.88;;
79687;SDS011;69155;49.464;2.108;2023-08-12T08:47:56;10.02;;;3.70;;
79687;SDS011;69155;49.464;2.108;2023-08-12T08:50:22;9.23;;;4.03;;
79687;SDS011;69155;49.464;2.108;2023-08-12T08:55:36;6.40;;;3.10;;
79687;SDS011;69155;49.464;2.108;2023-08-12T08:58:01;7.95;;;3.00;;
79687;SDS011;69155;49.464;2.108;2023-08-12T09:00:27;9.52;;;2.92;;
79687;SDS011;69155;49.464;2.108;2023-08-12T09:02:52;11.38;;;2.88;;
79687;SDS011;69155;49.464;2.108;2023-08-12T09:05:18;9.00;;;3.10;;
79687;SDS011;69155;49.464;2.108;2023-08-12T09:07:45;7.72;;;3.40;;
79687;SDS011;69155;49.464;2.108;2023-08-12T09:10:12;7.80;;;2.88;;
79687;SDS011;69155;49.464;2.108;2023-08-12T09:12:37;7.03;;;2.90;;
79687;SDS011;69155;49.464;2.108;2023-08-12T09:15:03;9.23;;;3.20;;
79687;SDS011;69155;49.464;2.108;2023-08-12T09:17:29;8.50;;;2.80;;
79687;SDS011;69155;49.464;2.108;2023-08-12T09:19:54;7.40;;;3.13;;
79687;SDS011;69155;49.464;2.108;2023-08-12T09:22:20;9.10;;;3.17;;
79687;SDS011;69155;49.464;2.108;2023-08-12T09:24:45;8.93;;;3.80;;
79687;SDS011;69155;49.464;2.108;2023-08-12T09:27:10;5.53;;;3.10;;
79687;SDS011;69155;49.464;2.108;2023-08-12T09:29:36;6.40;;;3.88;;
79687;SDS011;69155;49.464;2.108;2023-08-12T09:34:36;7.90;;;4.45;;
79687;SDS011;69155;49.464;2.108;2023-08-12T09:37:02;7.15;;;3.42;;
79687;SDS011;69155;49.464;2.108;2023-08-12T09:39:28;9.97;;;4.30;;
79687;SDS011;69155;49.464;2.108;2023-08-12T09:41:54;9.65;;;3.92;;
79687;SDS011;69155;49.464;2.108;2023-08-12T09:44:19;6.65;;;3.50;;
79687;SDS011;69155;49.464;2.108;2023-08-12T09:46:45;7.93;;;4.25;;
79687;SDS011;69155;49.464;2.108;2023-08-12T09:49:10;7.83;;;4.50;;
79687;SDS011;69155;49.464;2.108;2023-08-12T09:51:38;6.30;;;3.70;;
79687;SDS011;69155;49.464;2.108;2023-08-12T09:54:08;7.03;;;3.50;;
79687;SDS011;69155;49.464;2.108;2023-08-12T09:56:35;5.88;;;4.05;;
79687;SDS011;69155;49.464;2.108;2023-08-12T09:59:01;6.38;;;3.20;;
79687;SDS011;69155;49.464;2.108;2023-08-12T10:01:28;7.05;;;2.97;;
79687;SDS011;69155;49.464;2.108;2023-08-12T10:03:53;6.83;;;3.10;;
79687;SDS011;69155;49.464;2.108;2023-08-12T10:06:19;6.15;;;3.10;;
79687;SDS011;69155;49.464;2.108;2023-08-12T10:08:48;5.30;;;3.10;;
79687;SDS011;69155;49.464;2.108;2023-08-12T10:11:14;3.72;;;2.78;;
79687;SDS011;69155;49.464;2.108;2023-08-12T10:13:42;7.78;;;2.95;;
79687;SDS011;69155;49.464;2.108;2023-08-12T10:16:08;5.10;;;2.90;;
79687;SDS011;69155;49.464;2.108;2023-08-12T10:18:34;7.00;;;3.00;;
79687;SDS011;69155;49.464;2.108;2023-08-12T10:20:59;8.65;;;3.72;;
79687;SDS011;69155;49.464;2.108;2023-08-12T10:23:25;5.93;;;3.75;;
79687;SDS011;69155;49.464;2.108;2023-08-12T10:25:52;8.88;;;3.80;;
79687;SDS011;69155;49.464;2.108;2023-08-12T10:28:18;9.13;;;3.70;;
79687;SDS011;69155;49.464;2.108;2023-08-12T10:30:44;7.57;;;3.60;;
79687;SDS011;69155;49.464;2.108;2023-08-12T10:33:09;5.15;;;3.00;;
79687;SDS011;69155;49.464;2.108;2023-08-12T10:35:45;4.03;;;2.50;;
79687;SDS011;69155;49.464;2.108;2023-08-12T10:38:11;5.78;;;2.38;;
79687;SDS011;69155;49.464;2.108;2023-08-12T10:40:36;4.80;;;2.40;;
79687;SDS011;69155;49.464;2.108;2023-08-12T10:43:04;8.73;;;2.67;;
79687;SDS011;69155;49.464;2.108;2023-08-12T10:45:42;6.20;;;2.45;;
79687;SDS011;69155;49.464;2.108;2023-08-12T10:50:34;5.00;;;1.88;;
79687;SDS011;69155;49.464;2.108;2023-08-12T10:52:59;4.83;;;1.93;;
79687;SDS011;69155;49.464;2.108;2023-08-12T10:55:47;3.83;;;1.50;;
79687;SDS011;69155;49.464;2.108;2023-08-12T10:58:13;5.13;;;1.80;;
79687;SDS011;69155;49.464;2.108;2023-08-12T11:00:51;4.35;;;2.08;;
79687;SDS011;69155;49.464;2.108;2023-08-12T11:03:16;4.10;;;1.98;;
79687;SDS011;69155;49.464;2.108;2023-08-12T11:05:43;5.35;;;1.80;;
79687;SDS011;69155;49.464;2.108;2023-08-12T11:08:09;3.85;;;1.75;;
79687;SDS011;69155;49.464;2.108;2023-08-12T11:10:37;10.18;;;4.13;;
79687;SDS011;69155;49.464;2.108;2023-08-12T11:13:05;6.38;;;2.00;;
79687;SDS011;69155;49.464;2.108;2023-08-12T11:18:01;3.83;;;1.80;;
79687;SDS011;69155;49.464;2.108;2023-08-12T11:20:27;4.13;;;1.77;;
79687;SDS011;69155;49.464;2.108;2023-08-12T11:22:53;5.10;;;1.90;;
79687;SDS011;69155;49.464;2.108;2023-08-12T11:25:18;2.75;;;1.70;;
79687;SDS011;69155;49.464;2.108;2023-08-12T11:27:45;4.60;;;2.15;;
79687;SDS011;69155;49.464;2.108;2023-08-12T11:30:12;4.82;;;1.60;;
79687;SDS011;69155;49.464;2.108;2023-08-12T11:32:38;4.43;;;1.42;;
79687;SDS011;69155;49.464;2.108;2023-08-12T11:35:04;7.00;;;2.30;;
79687;SDS011;69155;49.464;2.108;2023-08-12T11:37:31;4.75;;;1.75;;
79687;SDS011;69155;49.464;2.108;2023-08-12T11:39:56;8.45;;;1.90;;
79687;SDS011;69155;49.464;2.108;2023-08-12T11:42:21;6.40;;;2.00;;
79687;SDS011;69155;49.464;2.108;2023-08-12T11:44:46;4.67;;;1.90;;
79687;SDS011;69155;49.464;2.108;2023-08-12T11:47:12;4.37;;;1.83;;
79687;SDS011;69155;49.464;2.108;2023-08-12T11:49:37;2.50;;;1.53;;
79687;SDS011;69155;49.464;2.108;2023-08-12T11:52:02;3.90;;;1.70;;
79687;SDS011;69155;49.464;2.108;2023-08-12T11:54:31;5.18;;;1.90;;
79687;SDS011;69155;49.464;2.108;2023-08-12T11:56:57;7.65;;;1.90;;
79687;SDS011;69155;49.464;2.108;2023-08-12T11:59:23;4.25;;;1.70;;
79687;SDS011;69155;49.464;2.108;2023-08-12T12:01:48;7.00;;;1.97;;
79687;SDS011;69155;49.464;2.108;2023-08-12T12:04:14;4.38;;;1.70;;
79687;SDS011;69155;49.464;2.108;2023-08-12T12:06:40;3.95;;;1.65;;
79687;SDS011;69155;49.464;2.108;2023-08-12T12:09:09;4.50;;;1.85;;
79687;SDS011;69155;49.464;2.108;2023-08-12T12:11:37;4.75;;;1.70;;
79687;SDS011;69155;49.464;2.108;2023-08-12T12:14:03;4.05;;;2.05;;
79687;SDS011;69155;49.464;2.108;2023-08-12T12:16:38;3.33;;;1.63;;
79687;SDS011;69155;49.464;2.108;2023-08-12T12:19:05;2.28;;;1.50;;
79687;SDS011;69155;49.464;2.108;2023-08-12T12:21:37;4.50;;;1.83;;
79687;SDS011;69155;49.464;2.108;2023-08-12T12:24:03;5.90;;;1.90;;
79687;SDS011;69155;49.464;2.108;2023-08-12T12:26:28;8.18;;;1.75;;
79687;SDS011;69155;49.464;2.108;2023-08-12T12:28:53;3.70;;;1.50;;
79687;SDS011;69155;49.464;2.108;2023-08-12T12:31:18;4.70;;;1.87;;
79687;SDS011;69155;49.464;2.108;2023-08-12T12:33:46;4.35;;;2.00;;
79687;SDS011;69155;49.464;2.108;2023-08-12T12:36:11;8.20;;;2.07;;
79687;SDS011;69155;49.464;2.108;2023-08-12T12:38:36;4.60;;;1.90;;
79687;SDS011;69155;49.464;2.108;2023-08-12T12:41:04;4.13;;;1.65;;
79687;SDS011;69155;49.464;2.108;2023-08-12T12:43:32;5.93;;;1.73;;
79687;SDS011;69155;49.464;2.108;2023-08-12T12:45:57;5.47;;;1.80;;
79687;SDS011;69155;49.464;2.108;2023-08-12T12:48:22;7.73;;;2.20;;
79687;SDS011;69155;49.464;2.108;2023-08-12T12:50:50;4.75;;;1.80;;
79687;SDS011;69155;49.464;2.108;2023-08-12T12:53:15;3.95;;;1.83;;
79687;SDS011;69155;49.464;2.108;2023-08-12T12:55:41;4.60;;;1.60;;
79687;SDS011;69155;49.464;2.108;2023-08-12T12:58:06;5.50;;;1.80;;
79687;SDS011;69155;49.464;2.108;2023-08-12T13:00:31;9.00;;;2.20;;
79687;SDS011;69155;49.464;2.108;2023-08-12T13:02:56;6.67;;;2.23;;
79687;SDS011;69155;49.464;2.108;2023-08-12T13:05:22;9.00;;;2.42;;
79687;SDS011;69155;49.464;2.108;2023-08-12T13:07:47;7.33;;;1.73;;
79687;SDS011;69155;49.464;2.108;2023-08-12T13:10:12;4.00;;;1.67;;
79687;SDS011;69155;49.464;2.108;2023-08-12T13:12:37;6.37;;;2.43;;
79687;SDS011;69155;49.464;2.108;2023-08-12T13:15:03;4.37;;;2.00;;
79687;SDS011;69155;49.464;2.108;2023-08-12T13:17:28;7.80;;;2.33;;
79687;SDS011;69155;49.464;2.108;2023-08-12T13:19:53;8.87;;;1.97;;
79687;SDS011;69155;49.464;2.108;2023-08-12T13:22:18;8.30;;;2.70;;
79687;SDS011;69155;49.464;2.108;2023-08-12T13:24:47;5.00;;;1.83;;
79687;SDS011;69155;49.464;2.108;2023-08-12T13:27:12;4.43;;;1.88;;
79687;SDS011;69155;49.464;2.108;2023-08-12T13:29:41;8.25;;;1.88;;
79687;SDS011;69155;49.464;2.108;2023-08-12T13:32:06;4.25;;;1.75;;
79687;SDS011;69155;49.464;2.108;2023-08-12T13:34:31;6.43;;;1.97;;
79687;SDS011;69155;49.464;2.108;2023-08-12T13:37:00;3.75;;;1.80;;
79687;SDS011;69155;49.464;2.108;2023-08-12T13:39:25;4.40;;;1.90;;
79687;SDS011;69155;49.464;2.108;2023-08-12T13:41:51;9.95;;;2.20;;
79687;SDS011;69155;49.464;2.108;2023-08-12T13:44:16;5.33;;;1.97;;
79687;SDS011;69155;49.464;2.108;2023-08-12T13:46:41;3.47;;;1.77;;
79687;SDS011;69155;49.464;2.108;2023-08-12T13:49:06;9.07;;;2.23;;
79687;SDS011;69155;49.464;2.108;2023-08-12T13:51:39;6.85;;;2.20;;
79687;SDS011;69155;49.464;2.108;2023-08-12T13:56:50;5.88;;;2.03;;
79687;SDS011;69155;49.464;2.108;2023-08-12T13:59:15;3.93;;;1.77;;
79687;SDS011;69155;49.464;2.108;2023-08-12T14:01:40;5.83;;;2.20;;
79687;SDS011;69155;49.464;2.108;2023-08-12T14:04:07;5.30;;;2.30;;
79687;SDS011;69155;49.464;2.108;2023-08-12T14:06:33;3.03;;;1.50;;
79687;SDS011;69155;49.464;2.108;2023-08-12T14:09:01;9.50;;;3.05;;
79687;SDS011;69155;49.464;2.108;2023-08-12T14:11:27;5.15;;;1.75;;
79687;SDS011;69155;49.464;2.108;2023-08-12T14:13:52;4.33;;;1.73;;
79687;SDS011;69155;49.464;2.108;2023-08-12T14:16:20;2.90;;;1.70;;
79687;SDS011;69155;49.464;2.108;2023-08-12T14:18:45;9.98;;;1.90;;
79687;SDS011;69155;49.464;2.108;2023-08-12T14:21:10;6.40;;;1.70;;
79687;SDS011;69155;49.464;2.108;2023-08-12T14:23:36;8.73;;;2.87;;
79687;SDS011;69155;49.464;2.108;2023-08-12T14:26:01;12.87;;;2.10;;
79687;SDS011;69155;49.464;2.108;2023-08-12T14:28:26;5.07;;;1.98;;
79687;SDS011;69155;49.464;2.108;2023-08-12T14:30:51;8.63;;;2.00;;
79687;SDS011;69155;49.464;2.108;2023-08-12T14:33:18;22.95;;;3.47;;
79687;SDS011;69155;49.464;2.108;2023-08-12T14:35:43;27.73;;;4.23;;
79687;SDS011;69155;49.464;2.108;2023-08-12T14:38:08;61.13;;;6.00;;
79687;SDS011;69155;49.464;2.108;2023-08-12T14:40:33;5.40;;;2.00;;
79687;SDS011;69155;49.464;2.108;2023-08-12T14:42:59;12.25;;;2.03;;
79687;SDS011;69155;49.464;2.108;2023-08-12T14:45:24;7.77;;;2.20;;
79687;SDS011;69155;49.464;2.108;2023-08-12T14:47:49;11.23;;;2.43;;
79687;SDS011;69155;49.464;2.108;2023-08-12T14:50:14;3.60;;;1.70;;
79687;SDS011;69155;49.464;2.108;2023-08-12T14:52:40;11.83;;;2.60;;